Time;durP1;ratioP1;P1;durP2;ratioP2;P2;SDS_P1;SDS_P2;PMS_P1;PMS_P2;Temp;Humidity;BMP_temperature;BMP_pressure;BME280_temperature;BME280_humidity;BME280_pressure;Samples;Min_cycle;Max_cycle;Signal;HPM_P1;HPM_P2
2022/01/18 00:00:36;;;;;;;17.67;3.50;;;6.00;99.90;;;;;;5086031;28;20300;-67
2022/01/18 00:03:04;;;;;;;14.73;3.40;;;5.90;99.90;;;;;;5089008;28;20213;-67
2022/01/18 00:05:33;;;;;;;18.23;3.63;;;6.00;99.90;;;;;;5087653;28;20653;-67
2022/01/18 00:08:00;;;;;;;20.03;3.63;;;5.90;99.90;;;;;;5069975;28;20256;-67
2022/01/18 00:10:30;;;;;;;19.33;3.57;;;5.90;99.90;;;;;;5070116;28;20216;-67
2022/01/18 00:13:12;;;;;;;22.93;3.90;;;5.90;99.90;;;;;;5089589;28;20209;-67
2022/01/18 00:15:53;;;;;;;20.50;3.23;;;5.90;99.90;;;;;;5077378;28;20202;-67
2022/01/18 00:18:20;;;;;;;15.90;3.67;;;5.90;99.90;;;;;;5074489;28;20206;-67
2022/01/18 00:21:11;;;;;;;30.70;4.87;;;5.90;99.90;;;;;;5069095;28;20202;-67
2022/01/18 00:23:40;;;;;;;15.57;4.13;;;5.90;99.90;;;;;;5088086;28;20683;-67
2022/01/18 00:26:10;;;;;;;18.87;3.23;;;5.90;99.90;;;;;;5084027;28;20405;-68
2022/01/18 00:28:38;;;;;;;17.63;4.43;;;5.90;99.90;;;;;;5089205;28;20202;-67
2022/01/18 00:34:02;;;;;;;16.77;2.90;;;5.90;99.90;;;;;;5075820;28;20762;-67
2022/01/18 00:36:38;;;;;;;19.27;3.70;;;5.90;99.90;;;;;;5082760;28;20288;-67
2022/01/18 00:39:07;;;;;;;22.07;4.50;;;5.80;99.90;;;;;;5089763;28;20197;-67
2022/01/18 00:41:35;;;;;;;11.73;3.10;;;5.80;99.90;;;;;;5080367;28;20616;-67
2022/01/18 00:44:02;;;;;;;17.23;2.50;;;5.90;99.90;;;;;;5073291;28;20213;-67
2022/01/18 00:46:30;;;;;;;18.07;3.47;;;5.80;99.90;;;;;;5068533;28;20664;-67
2022/01/18 00:49:00;;;;;;;15.50;3.57;;;5.90;99.90;;;;;;5085515;28;20462;-67
2022/01/18 00:51:28;;;;;;;22.20;3.87;;;5.90;99.90;;;;;;5088325;28;20533;-67
2022/01/18 00:53:58;;;;;;;15.93;4.00;;;5.90;99.90;;;;;;5081943;28;20207;-67
2022/01/18 00:56:28;;;;;;;20.30;3.53;;;5.90;99.90;;;;;;5079220;28;20281;-67
2022/01/18 00:58:55;;;;;;;18.17;3.47;;;5.90;99.90;;;;;;5085906;28;20544;-67
2022/01/18 01:01:25;;;;;;;17.43;3.63;;;5.90;99.90;;;;;;5089307;28;20606;-67
2022/01/18 01:03:56;;;;;;;14.13;3.23;;;5.90;99.90;;;;;;5086412;28;20655;-67
2022/01/18 01:06:23;;;;;;;14.63;3.30;;;5.90;99.90;;;;;;5084923;28;20227;-67
2022/01/18 01:08:51;;;;;;;15.00;3.20;;;5.90;99.90;;;;;;5087591;28;20206;-67
2022/01/18 01:11:20;;;;;;;17.00;2.73;;;5.80;99.90;;;;;;5084630;28;20237;-67
2022/01/18 01:13:49;;;;;;;14.43;3.30;;;5.80;99.90;;;;;;5080109;28;20203;-67
2022/01/18 01:16:46;;;;;;;13.50;3.00;;;5.80;99.90;;;;;;5083813;28;20603;-67
2022/01/18 01:35:51;;;;;;;21.90;3.87;;;5.80;99.90;;;;;;5087837;28;20479;-67
2022/01/18 01:44:03;;;;;;;17.20;3.40;;;5.80;99.90;;;;;;5093076;28;20208;-67
2022/01/18 01:46:31;;;;;;;12.90;3.60;;;5.80;99.90;;;;;;5070911;28;20218;-67
2022/01/18 01:49:01;;;;;;;12.90;3.43;;;5.80;99.90;;;;;;5088539;28;20206;-67
2022/01/18 01:51:30;;;;;;;15.70;3.30;;;5.80;99.90;;;;;;5091766;28;20209;-67
2022/01/18 01:53:59;;;;;;;10.13;2.97;;;5.80;99.90;;;;;;5091578;28;20205;-67
2022/01/18 01:56:26;;;;;;;14.83;3.93;;;5.80;99.90;;;;;;5081761;28;20713;-67
2022/01/18 01:58:54;;;;;;;14.90;4.10;;;5.80;99.90;;;;;;5092430;28;20596;-67
2022/01/18 02:01:22;;;;;;;15.90;4.27;;;5.80;99.90;;;;;;5091694;28;20453;-67
2022/01/18 02:03:50;;;;;;;11.50;3.20;;;5.80;99.90;;;;;;5074449;28;20202;-67
2022/01/18 02:06:18;;;;;;;11.73;3.60;;;5.80;99.90;;;;;;5092725;28;20517;-67
2022/01/18 02:08:46;;;;;;;16.10;3.30;;;5.80;99.90;;;;;;5089764;28;20270;-67
2022/01/18 02:11:13;;;;;;;11.27;3.30;;;5.70;99.90;;;;;;5082386;28;20251;-67
2022/01/18 02:13:41;;;;;;;13.70;3.17;;;5.70;99.90;;;;;;5090860;28;20585;-67
2022/01/18 02:21:45;;;;;;;12.33;3.03;;;5.70;99.90;;;;;;5084154;28;20209;-67
2022/01/18 02:21:52;;;;;;;13.37;2.90;;;5.70;99.90;;;;;;5086317;28;20475;-67
2022/01/18 02:24:21;;;;;;;13.60;3.23;;;5.70;99.90;;;;;;5072064;28;20229;-67
2022/01/18 02:26:48;;;;;;;10.73;2.73;;;5.70;99.90;;;;;;5091425;28;20274;-67
2022/01/18 02:29:16;;;;;;;11.07;3.50;;;5.70;99.90;;;;;;5090646;28;20233;-67
2022/01/18 02:31:43;;;;;;;7.47;2.73;;;5.70;99.90;;;;;;5090899;28;20349;-67
2022/01/18 02:34:12;;;;;;;10.57;2.40;;;5.70;99.90;;;;;;5090561;28;20266;-67
2022/01/18 02:36:40;;;;;;;9.67;1.80;;;5.60;99.90;;;;;;5090969;28;20233;-67
2022/01/18 02:39:08;;;;;;;11.33;3.10;;;5.60;99.90;;;;;;5089527;28;20198;-67
2022/01/18 02:41:36;;;;;;;15.53;3.17;;;5.70;99.90;;;;;;5072131;28;20202;-67
2022/01/18 02:44:05;;;;;;;7.73;1.70;;;5.60;99.90;;;;;;5072360;28;20198;-67
2022/01/18 02:46:33;;;;;;;13.10;2.40;;;5.70;99.90;;;;;;5070742;28;20267;-67
2022/01/18 02:49:01;;;;;;;14.07;3.37;;;5.70;99.90;;;;;;5088667;28;20198;-67
2022/01/18 02:51:28;;;;;;;14.17;3.70;;;5.70;99.90;;;;;;5087936;28;20709;-67
2022/01/18 02:54:00;;;;;;;11.53;2.47;;;5.70;99.90;;;;;;5085963;28;20215;-67
2022/01/18 02:56:30;;;;;;;14.03;2.83;;;5.70;99.90;;;;;;5090989;28;20210;-67
2022/01/18 02:59:15;;;;;;;10.70;3.10;;;5.70;99.90;;;;;;5089892;28;20258;-67
2022/01/18 03:04:39;;;;;;;13.17;2.73;;;5.70;99.90;;;;;;5045428;28;20209;-67
2022/01/18 03:07:07;;;;;;;13.57;2.70;;;5.70;99.90;;;;;;5086520;28;20686;-67
2022/01/18 03:09:34;;;;;;;13.13;2.17;;;5.80;99.90;;;;;;5086395;28;20259;-67
2022/01/18 03:12:03;;;;;;;9.07;2.37;;;5.70;99.90;;;;;;5070052;28;20198;-67
2022/01/18 03:14:30;;;;;;;14.60;2.97;;;5.70;99.90;;;;;;5070789;28;20226;-67
2022/01/18 03:16:57;;;;;;;13.33;3.10;;;5.70;99.90;;;;;;5079581;28;20224;-67
2022/01/18 03:19:24;;;;;;;14.03;2.40;;;5.80;99.90;;;;;;5087147;28;20247;-67
2022/01/18 03:21:55;;;;;;;14.30;2.63;;;5.80;99.90;;;;;;5091560;28;20231;-67
2022/01/18 03:24:44;;;;;;;9.87;2.47;;;5.70;99.90;;;;;;5087312;28;20209;-67
2022/01/18 03:29:57;;;;;;;13.83;4.97;;;5.80;99.90;;;;;;5071489;28;20653;-67
2022/01/18 03:32:25;;;;;;;11.60;4.27;;;5.70;99.90;;;;;;5081427;28;20251;-67
2022/01/18 03:34:52;;;;;;;16.37;3.30;;;5.80;99.90;;;;;;5081509;28;20198;-67
2022/01/18 03:37:19;;;;;;;13.10;2.67;;;5.70;99.90;;;;;;5082458;28;20232;-67
2022/01/18 03:39:45;;;;;;;7.73;2.30;;;5.70;99.90;;;;;;5082057;28;20641;-67
2022/01/18 03:45:02;;;;;;;11.27;2.30;;;5.80;99.90;;;;;;5085693;28;20201;-67
2022/01/18 03:47:29;;;;;;;9.67;1.73;;;5.80;99.90;;;;;;5089052;28;20216;-67
2022/01/18 03:49:56;;;;;;;10.53;2.23;;;5.80;99.90;;;;;;5090987;28;20206;-67
2022/01/18 03:52:24;;;;;;;12.23;2.43;;;5.80;99.90;;;;;;5078965;28;20264;-67
2022/01/18 03:54:51;;;;;;;9.43;2.47;;;5.80;99.90;;;;;;5070326;28;20234;-67
2022/01/18 03:57:20;;;;;;;8.67;2.03;;;5.80;99.90;;;;;;5081049;28;20194;-67
2022/01/18 03:59:47;;;;;;;7.93;1.90;;;5.80;99.90;;;;;;5089144;28;20199;-67
2022/01/18 04:02:15;;;;;;;8.87;2.23;;;5.80;99.90;;;;;;5090953;28;20240;-67
2022/01/18 04:04:42;;;;;;;7.67;1.83;;;5.90;99.90;;;;;;5079219;28;20287;-68
2022/01/18 04:07:10;;;;;;;14.90;3.20;;;5.80;99.90;;;;;;5070693;28;20218;-68
2022/01/18 04:09:37;;;;;;;10.47;2.30;;;5.80;99.90;;;;;;5089722;28;20194;-69
2022/01/18 04:12:05;;;;;;;10.40;2.40;;;5.80;99.90;;;;;;5090582;28;20193;-69
2022/01/18 04:14:33;;;;;;;15.57;2.17;;;5.80;99.90;;;;;;5071827;28;20238;-69
2022/01/18 04:17:07;;;;;;;9.50;2.37;;;5.70;99.90;;;;;;5070393;28;20206;-67
2022/01/18 04:27:53;;;;;;;10.57;3.30;;;5.80;99.90;;;;;;5070256;28;20254;-73
2022/01/18 04:30:22;;;;;;;13.90;3.93;;;5.80;99.90;;;;;;5070625;28;20356;-74
2022/01/18 04:32:50;;;;;;;8.03;2.40;;;5.80;99.90;;;;;;5069246;28;20221;-74
2022/01/18 04:35:17;;;;;;;10.97;2.37;;;5.70;99.90;;;;;;5070150;28;20567;-74
2022/01/18 04:37:44;;;;;;;7.57;2.10;;;5.70;99.90;;;;;;5070258;28;20202;-74
2022/01/18 04:40:16;;;;;;;10.20;3.03;;;5.70;99.90;;;;;;5070434;28;20660;-74
2022/01/18 04:43:02;;;;;;;9.70;2.50;;;5.80;99.90;;;;;;5070172;28;20297;-74
2022/01/18 04:48:32;;;;;;;4.27;2.60;;;5.80;99.90;;;;;;5070187;28;20205;-74
2022/01/18 04:51:03;;;;;;;10.63;2.87;;;5.80;99.90;;;;;;5070385;28;20657;-74
2022/01/18 04:53:32;;;;;;;7.90;2.80;;;5.80;99.90;;;;;;5069822;28;20568;-74
2022/01/18 04:56:04;;;;;;;10.70;3.53;;;5.80;99.90;;;;;;5070348;28;20214;-74
2022/01/18 04:58:31;;;;;;;5.97;2.80;;;5.80;99.90;;;;;;5085509;28;20217;-74
2022/01/18 05:01:01;;;;;;;9.43;2.67;;;5.80;99.90;;;;;;5096370;28;20202;-74
2022/01/18 05:03:29;;;;;;;6.83;3.10;;;5.90;99.90;;;;;;5093698;28;20559;-74
2022/01/18 05:05:59;;;;;;;6.93;3.10;;;5.90;99.90;;;;;;5093902;28;20305;-74
2022/01/18 05:08:27;;;;;;;10.90;3.87;;;5.80;99.90;;;;;;5094194;28;20221;-74
2022/01/18 05:10:56;;;;;;;11.20;3.67;;;5.90;99.90;;;;;;5093451;28;20198;-74
2022/01/18 05:13:54;;;;;;;8.63;3.07;;;5.90;99.90;;;;;;5093338;28;20291;-74
2022/01/18 05:19:12;;;;;;;9.73;3.37;;;5.90;99.90;;;;;;5092482;28;20697;-74
2022/01/18 05:24:22;;;;;;;6.43;3.10;;;5.90;99.90;;;;;;5092076;28;20204;-74
2022/01/18 05:26:49;;;;;;;5.37;2.90;;;5.90;99.90;;;;;;5093671;28;20267;-74
2022/01/18 05:29:17;;;;;;;9.03;3.57;;;5.90;99.90;;;;;;5094013;28;20240;-74
2022/01/18 05:31:45;;;;;;;8.97;3.40;;;5.90;99.90;;;;;;5093384;28;20205;-74
2022/01/18 05:34:12;;;;;;;10.33;3.83;;;5.90;99.90;;;;;;5093495;28;20240;-74
2022/01/18 05:36:40;;;;;;;9.67;3.53;;;5.90;99.90;;;;;;5093485;28;20202;-74
2022/01/18 05:39:09;;;;;;;9.33;4.20;;;5.90;99.90;;;;;;5092440;28;20206;-74
2022/01/18 05:41:36;;;;;;;8.47;3.27;;;5.90;99.90;;;;;;5093770;28;20248;-74
2022/01/18 05:44:03;;;;;;;10.93;4.00;;;5.90;99.90;;;;;;5093171;28;20709;-74
2022/01/18 05:46:30;;;;;;;12.93;3.50;;;5.90;99.90;;;;;;5091871;28;20217;-74
2022/01/18 05:49:01;;;;;;;10.23;3.23;;;5.90;99.90;;;;;;5092512;28;20648;-74
2022/01/18 05:51:28;;;;;;;10.53;3.10;;;5.90;99.90;;;;;;5093507;28;20219;-74
2022/01/18 05:53:55;;;;;;;8.73;3.50;;;5.90;99.90;;;;;;5092699;28;20286;-74
2022/01/18 05:56:22;;;;;;;11.80;4.00;;;5.90;99.90;;;;;;5093386;28;20617;-74
2022/01/18 05:58:49;;;;;;;8.20;3.73;;;5.90;99.90;;;;;;5092471;28;20260;-74
2022/01/18 06:01:24;;;;;;;8.63;3.23;;;5.90;99.90;;;;;;5092885;28;20201;-74
2022/01/18 06:04:05;;;;;;;7.03;3.77;;;5.90;99.90;;;;;;5093142;28;20217;-74
2022/01/18 06:06:53;;;;;;;10.07;3.43;;;5.90;99.90;;;;;;5091812;28;20229;-74
2022/01/18 06:09:22;;;;;;;9.57;3.90;;;5.90;99.90;;;;;;5091748;28;20209;-74
2022/01/18 06:11:49;;;;;;;8.77;3.70;;;5.90;99.90;;;;;;5092771;28;20259;-74
2022/01/18 06:14:17;;;;;;;11.40;3.90;;;5.90;99.90;;;;;;5090576;28;20638;-74
2022/01/18 06:16:44;;;;;;;13.90;4.60;;;5.90;99.90;;;;;;5092162;28;20298;-74
2022/01/18 06:19:11;;;;;;;9.60;3.70;;;6.00;99.90;;;;;;5092800;28;20201;-74
2022/01/18 06:21:40;;;;;;;10.10;4.10;;;6.00;99.90;;;;;;5091590;28;20205;-74
2022/01/18 06:24:09;;;;;;;10.60;4.50;;;6.00;99.90;;;;;;5092345;28;20720;-74
2022/01/18 06:26:36;;;;;;;9.10;3.87;;;6.00;99.90;;;;;;5091615;28;20232;-70
2022/01/18 06:29:04;;;;;;;12.13;4.30;;;6.00;99.90;;;;;;5091841;28;20197;-68
2022/01/18 06:31:31;;;;;;;8.67;4.03;;;6.00;99.90;;;;;;5091558;28;20201;-67
2022/01/18 06:33:58;;;;;;;14.33;5.10;;;6.00;99.90;;;;;;5090908;28;20220;-67
2022/01/18 06:36:25;;;;;;;10.83;5.13;;;6.10;99.90;;;;;;5091681;28;20274;-67
2022/01/18 06:38:54;;;;;;;11.50;5.30;;;6.10;99.90;;;;;;5091345;28;20259;-67
2022/01/18 06:41:21;;;;;;;11.60;4.83;;;6.10;99.90;;;;;;5091400;28;20263;-67
2022/01/18 06:43:48;;;;;;;14.13;5.30;;;6.00;99.90;;;;;;5092281;28;20655;-67
2022/01/18 06:46:15;;;;;;;12.27;5.20;;;6.00;99.90;;;;;;5092148;28;20736;-68
2022/01/18 06:48:44;;;;;;;10.13;4.73;;;5.90;99.90;;;;;;5091154;28;20202;-67
2022/01/18 06:51:11;;;;;;;11.87;5.23;;;5.90;99.90;;;;;;5091620;28;20231;-67
2022/01/18 06:53:44;;;;;;;12.20;5.00;;;6.00;99.90;;;;;;5091118;28;20271;-67
2022/01/18 06:56:14;;;;;;;12.53;5.10;;;5.90;99.90;;;;;;5092284;28;20634;-67
2022/01/18 06:58:41;;;;;;;9.90;5.13;;;5.90;99.90;;;;;;5091551;28;20202;-68
2022/01/18 07:01:09;;;;;;;9.37;4.97;;;6.00;99.90;;;;;;5091951;28;20243;-68
2022/01/18 07:03:36;;;;;;;8.47;4.90;;;6.00;99.90;;;;;;5090142;28;20197;-67
2022/01/18 07:06:03;;;;;;;8.27;5.10;;;6.00;99.90;;;;;;5090661;28;20262;-67
2022/01/18 07:08:31;;;;;;;8.40;5.87;;;6.00;99.90;;;;;;5091756;28;20271;-67
2022/01/18 07:10:58;;;;;;;10.90;5.23;;;6.00;99.90;;;;;;5091730;28;20292;-67
2022/01/18 07:13:26;;;;;;;9.33;4.93;;;6.00;99.90;;;;;;5091597;28;20201;-68
2022/01/18 07:15:53;;;;;;;13.73;5.23;;;6.00;99.90;;;;;;5089971;28;20489;-67
2022/01/18 07:18:20;;;;;;;11.27;5.00;;;6.00;99.90;;;;;;5091763;28;20206;-67
2022/01/18 07:20:47;;;;;;;14.13;5.40;;;6.00;99.90;;;;;;5091610;28;20197;-67
2022/01/18 07:23:14;;;;;;;14.90;5.60;;;6.00;99.90;;;;;;5090858;28;20247;-67
2022/01/18 07:25:44;;;;;;;14.83;5.37;;;6.00;99.90;;;;;;5091234;28;20205;-68
2022/01/18 07:28:12;;;;;;;10.50;5.73;;;6.10;99.90;;;;;;5091242;28;20221;-68
2022/01/18 07:30:41;;;;;;;10.10;5.33;;;6.00;99.90;;;;;;5090342;28;20178;-67
2022/01/18 07:33:08;;;;;;;9.40;5.50;;;6.10;99.90;;;;;;5090525;28;20278;-67
2022/01/18 07:35:36;;;;;;;12.93;5.33;;;6.10;99.90;;;;;;5089616;28;20198;-67
2022/01/18 07:38:04;;;;;;;12.37;5.33;;;6.10;99.90;;;;;;5090776;28;20567;-69
2022/01/18 07:40:33;;;;;;;8.13;5.00;;;6.10;99.90;;;;;;5089756;28;20624;-71
2022/01/18 07:43:01;;;;;;;8.27;4.73;;;6.20;99.90;;;;;;5090682;28;20259;-71
2022/01/18 07:45:29;;;;;;;10.67;4.83;;;6.10;99.90;;;;;;5091190;28;20256;-71
2022/01/18 07:47:57;;;;;;;10.03;5.57;;;6.20;99.90;;;;;;5089835;28;20291;-71
2022/01/18 07:50:24;;;;;;;10.00;4.60;;;6.20;99.90;;;;;;5090424;28;20350;-71
2022/01/18 07:52:52;;;;;;;10.50;4.67;;;6.20;99.90;;;;;;5091181;28;20244;-71
2022/01/18 07:55:19;;;;;;;11.97;5.13;;;6.20;99.90;;;;;;5089943;28;20294;-71
2022/01/18 07:57:46;;;;;;;9.03;4.80;;;6.20;99.90;;;;;;5089598;28;20209;-71
2022/01/18 08:00:15;;;;;;;8.47;4.47;;;6.20;99.90;;;;;;5091294;28;20678;-71
2022/01/18 08:02:43;;;;;;;10.80;5.03;;;6.20;99.90;;;;;;5088764;28;20247;-71
2022/01/18 08:05:13;;;;;;;8.97;4.10;;;6.20;99.90;;;;;;5089851;28;20209;-71
2022/01/18 08:07:40;;;;;;;8.10;4.00;;;6.30;99.90;;;;;;5089854;28;20217;-71
2022/01/18 08:10:09;;;;;;;7.83;4.17;;;6.30;99.90;;;;;;5090544;28;20202;-71
2022/01/18 08:12:36;;;;;;;8.33;4.23;;;6.30;99.90;;;;;;5070048;28;20191;-71
2022/01/18 08:15:13;;;;;;;9.33;4.33;;;6.30;99.90;;;;;;5069435;28;20210;-71
2022/01/18 08:17:40;;;;;;;10.60;4.43;;;6.30;99.90;;;;;;5071016;28;20556;-71
2022/01/18 08:20:10;;;;;;;11.13;4.57;;;6.40;99.90;;;;;;5069659;28;20198;-71
2022/01/18 08:22:39;;;;;;;9.70;5.20;;;6.40;99.90;;;;;;5090434;28;20702;-71
2022/01/18 08:25:07;;;;;;;7.67;4.77;;;6.30;99.90;;;;;;5089376;28;20198;-71
2022/01/18 08:27:34;;;;;;;9.87;5.30;;;6.40;99.90;;;;;;5090551;28;20225;-71
2022/01/18 08:30:01;;;;;;;9.03;4.67;;;6.40;99.90;;;;;;5090496;28;20258;-71
2022/01/18 08:32:28;;;;;;;15.03;6.10;;;6.40;99.90;;;;;;5089019;28;20201;-71
2022/01/18 08:34:55;;;;;;;10.70;4.63;;;6.40;99.90;;;;;;5069564;28;20214;-71
2022/01/18 08:37:22;;;;;;;8.97;4.83;;;6.40;99.90;;;;;;5069788;28;20251;-71
2022/01/18 08:39:51;;;;;;;10.07;5.27;;;6.40;99.90;;;;;;5089660;28;20255;-71
2022/01/18 08:42:18;;;;;;;11.07;5.00;;;6.50;99.90;;;;;;5090485;28;20285;-71
2022/01/18 08:44:45;;;;;;;10.17;5.40;;;6.50;99.90;;;;;;5090324;28;20255;-71
2022/01/18 08:47:13;;;;;;;11.03;5.57;;;6.50;99.90;;;;;;5090390;28;20225;-71
2022/01/18 08:49:40;;;;;;;10.90;5.57;;;6.60;99.90;;;;;;5089451;28;20193;-71
2022/01/18 08:52:07;;;;;;;12.33;5.57;;;6.70;99.90;;;;;;5090608;28;20236;-71
2022/01/18 08:54:35;;;;;;;13.10;5.63;;;6.80;99.90;;;;;;5089372;28;20197;-71
2022/01/18 08:57:04;;;;;;;11.83;5.97;;;6.80;99.90;;;;;;5089485;28;20202;-71
2022/01/18 08:59:35;;;;;;;13.87;6.87;;;6.70;99.90;;;;;;5089555;28;20550;-71
2022/01/18 09:02:02;;;;;;;12.77;6.30;;;6.80;99.90;;;;;;5090200;28;20209;-71
2022/01/18 09:04:29;;;;;;;16.33;7.17;;;6.80;99.90;;;;;;5089803;28;20267;-71
2022/01/18 09:06:57;;;;;;;16.70;6.50;;;6.70;99.90;;;;;;5090331;28;20302;-71
2022/01/18 09:09:26;;;;;;;14.57;6.27;;;6.70;99.90;;;;;;5090707;28;20721;-71
2022/01/18 09:11:53;;;;;;;12.90;5.40;;;6.80;99.90;;;;;;5088690;28;20247;-71
2022/01/18 09:14:22;;;;;;;19.63;6.37;;;6.80;99.90;;;;;;5087851;28;20206;-71
2022/01/18 09:16:49;;;;;;;16.27;6.10;;;6.90;99.90;;;;;;5090497;28;20198;-71
2022/01/18 09:19:16;;;;;;;14.40;6.63;;;7.00;99.90;;;;;;5091627;28;20259;-71
2022/01/18 09:21:47;;;;;;;15.27;6.13;;;7.10;99.90;;;;;;5091742;28;20837;-71
2022/01/18 09:24:14;;;;;;;16.87;6.57;;;7.20;99.90;;;;;;5091394;28;20659;-71
2022/01/18 09:26:41;;;;;;;15.37;6.33;;;7.40;99.90;;;;;;5091739;28;20208;-71
2022/01/18 09:29:10;;;;;;;18.70;6.97;;;7.40;99.90;;;;;;5091550;28;20233;-70
2022/01/18 09:31:39;;;;;;;16.17;6.30;;;7.40;99.90;;;;;;5091544;28;20293;-70
2022/01/18 09:34:06;;;;;;;18.50;7.97;;;7.40;99.90;;;;;;5091069;28;20644;-70
2022/01/18 09:36:33;;;;;;;23.77;7.10;;;7.30;99.90;;;;;;5091432;28;20230;-70
2022/01/18 09:39:01;;;;;;;18.33;7.13;;;7.40;99.90;;;;;;5091436;28;20233;-70
2022/01/18 09:41:30;;;;;;;18.87;7.37;;;7.30;99.90;;;;;;5091317;28;20239;-70
2022/01/18 09:43:58;;;;;;;19.93;8.00;;;7.40;99.90;;;;;;5091411;28;20330;-71
2022/01/18 09:46:25;;;;;;;24.33;8.73;;;7.40;99.90;;;;;;5094984;28;20255;-71
2022/01/18 09:48:55;;;;;;;21.03;8.17;;;7.40;99.90;;;;;;5095052;28;20267;-71
2022/01/18 09:51:23;;;;;;;25.63;9.10;;;7.40;99.90;;;;;;5094909;28;20216;-71
2022/01/18 09:53:50;;;;;;;27.27;9.23;;;7.40;99.90;;;;;;5094441;28;20202;-71
2022/01/18 09:56:18;;;;;;;22.17;8.37;;;7.50;99.90;;;;;;5094990;28;20251;-71
2022/01/18 09:58:45;;;;;;;28.60;8.60;;;7.60;99.90;;;;;;5094807;28;20202;-71
2022/01/18 10:01:13;;;;;;;25.53;8.90;;;7.60;99.90;;;;;;5094705;28;20197;-71
2022/01/18 10:03:42;;;;;;;26.20;10.07;;;7.60;99.90;;;;;;5094259;28;20202;-70
2022/01/18 10:06:11;;;;;;;25.83;8.97;;;7.70;99.90;;;;;;5094518;28;20198;-70
2022/01/18 10:08:41;;;;;;;23.83;8.13;;;7.60;99.90;;;;;;5094636;28;20733;-70
2022/01/18 10:11:10;;;;;;;23.83;8.67;;;7.60;99.90;;;;;;5094457;28;20197;-70
2022/01/18 10:13:38;;;;;;;19.90;9.53;;;7.60;99.90;;;;;;5094176;28;20236;-70
2022/01/18 10:16:08;;;;;;;23.03;8.77;;;7.50;99.90;;;;;;5094226;28;20237;-70
2022/01/18 10:18:42;;;;;;;24.27;8.60;;;7.60;99.90;;;;;;5094174;28;20198;-70
2022/01/18 10:21:11;;;;;;;24.97;9.47;;;7.80;99.90;;;;;;5094434;28;20250;-70
2022/01/18 10:23:39;;;;;;;19.27;7.83;;;8.40;99.90;;;;;;5093783;28;20255;-70
2022/01/18 10:26:22;;;;;;;22.13;7.87;;;8.30;99.90;;;;;;5094132;28;20202;-70
2022/01/18 10:28:58;;;;;;;16.27;6.90;;;8.40;99.90;;;;;;5092180;28;20279;-70
2022/01/18 10:31:28;;;;;;;26.97;8.10;;;8.30;99.90;;;;;;5094205;28;20201;-70
2022/01/18 10:34:20;;;;;;;21.33;9.17;;;8.50;99.90;;;;;;5093680;28;20293;-70
2022/01/18 10:37:00;;;;;;;18.27;7.60;;;8.80;99.90;;;;;;5093892;28;20201;-70
2022/01/18 10:39:29;;;;;;;16.63;7.03;;;8.70;99.90;;;;;;5094046;28;20886;-70
2022/01/18 10:41:57;;;;;;;16.63;6.83;;;8.50;99.90;;;;;;5093897;28;20209;-70
2022/01/18 10:44:24;;;;;;;18.97;7.60;;;8.40;99.90;;;;;;5101421;28;20246;-70
2022/01/18 10:46:53;;;;;;;20.00;7.60;;;8.50;99.90;;;;;;5092828;28;20326;-70
2022/01/18 10:49:29;;;;;;;20.23;7.30;;;8.60;99.90;;;;;;5092882;28;20253;-70
2022/01/18 10:52:05;;;;;;;18.27;6.87;;;8.50;99.90;;;;;;5084659;28;20198;-70
2022/01/18 10:54:42;;;;;;;20.77;7.97;;;8.30;99.90;;;;;;5092295;28;20201;-70
2022/01/18 10:57:12;;;;;;;20.80;6.93;;;8.40;99.90;;;;;;5093217;28;20558;-70
2022/01/18 10:59:41;;;;;;;17.07;6.97;;;8.30;99.90;;;;;;5092577;28;20217;-70
2022/01/18 11:02:13;;;;;;;21.30;7.17;;;8.30;99.90;;;;;;5092046;28;20596;-70
2022/01/18 11:04:46;;;;;;;18.33;7.30;;;8.30;99.90;;;;;;5092200;28;20225;-70
2022/01/18 11:07:17;;;;;;;20.60;7.60;;;8.20;99.90;;;;;;5093289;28;20598;-70
2022/01/18 11:09:44;;;;;;;24.33;7.37;;;8.30;99.90;;;;;;5091830;28;20263;-70
2022/01/18 11:12:12;;;;;;;21.27;8.67;;;8.30;99.90;;;;;;5093738;28;20210;-74
2022/01/18 11:14:44;;;;;;;23.40;7.40;;;8.40;99.90;;;;;;5093234;28;20205;-74
2022/01/18 11:17:20;;;;;;;21.20;8.00;;;8.50;99.90;;;;;;5093852;28;20701;-74
2022/01/18 11:19:48;;;;;;;18.23;6.33;;;8.50;99.90;;;;;;5092106;28;20213;-74
2022/01/18 11:22:17;;;;;;;23.63;6.60;;;8.50;99.90;;;;;;5093441;28;20229;-74
2022/01/18 11:24:47;;;;;;;20.10;6.60;;;8.50;99.90;;;;;;5093233;28;20658;-74
2022/01/18 11:27:17;;;;;;;21.03;7.30;;;8.20;99.90;;;;;;5093671;28;20250;-74
2022/01/18 11:29:48;;;;;;;22.80;7.23;;;8.30;99.90;;;;;;5093193;28;20292;-74
2022/01/18 11:32:17;;;;;;;23.40;7.87;;;8.20;99.90;;;;;;5093752;28;20259;-74
2022/01/18 11:34:56;;;;;;;20.43;7.07;;;8.10;99.90;;;;;;5092970;28;20245;-73
2022/01/18 11:37:42;;;;;;;19.87;7.40;;;8.20;99.90;;;;;;5093383;28;20198;-74
2022/01/18 11:40:12;;;;;;;21.93;7.60;;;8.10;99.90;;;;;;5093064;28;20205;-73
2022/01/18 11:42:49;;;;;;;24.87;7.70;;;8.10;99.90;;;;;;5093114;28;20204;-74
2022/01/18 11:45:41;;;;;;;23.03;7.70;;;8.00;99.90;;;;;;5092959;28;20574;-74
2022/01/18 11:48:17;;;;;;;20.40;7.60;;;8.00;99.90;;;;;;5087249;28;20225;-74
2022/01/18 11:50:47;;;;;;;19.37;7.47;;;7.90;99.90;;;;;;5073154;28;20597;-74
2022/01/18 11:53:23;;;;;;;21.23;8.13;;;7.90;99.90;;;;;;5072633;28;20209;-74
2022/01/18 11:55:51;;;;;;;23.90;7.83;;;7.80;99.90;;;;;;5084785;28;20270;-74
2022/01/18 11:58:18;;;;;;;22.30;8.70;;;7.90;99.90;;;;;;5093115;28;20208;-74
2022/01/18 12:00:52;;;;;;;18.83;6.73;;;7.90;99.90;;;;;;5092579;28;20208;-74
2022/01/18 12:03:22;;;;;;;24.33;8.13;;;7.90;99.90;;;;;;5093067;28;20205;-74
2022/01/18 12:05:50;;;;;;;22.87;6.93;;;7.90;99.90;;;;;;5092838;28;20219;-74
2022/01/18 12:08:38;;;;;;;24.13;7.73;;;7.90;99.90;;;;;;5091989;28;20236;-74
2022/01/18 12:11:08;;;;;;;19.67;7.63;;;8.00;99.90;;;;;;5092804;28;20255;-74
2022/01/18 12:13:57;;;;;;;23.07;8.50;;;8.00;99.90;;;;;;5092520;28;20215;-74
2022/01/18 12:16:28;;;;;;;25.20;8.93;;;8.00;99.90;;;;;;5092752;28;20550;-74
2022/01/18 12:19:07;;;;;;;20.67;8.90;;;8.00;99.90;;;;;;5092277;28;20644;-74
2022/01/18 12:21:36;;;;;;;27.43;8.63;;;8.10;99.90;;;;;;5092431;28;20203;-74
2022/01/18 12:24:19;;;;;;;23.63;8.77;;;8.10;99.90;;;;;;5092552;28;20811;-74
2022/01/18 12:26:48;;;;;;;25.03;7.63;;;8.10;99.90;;;;;;5092550;28;20213;-74
2022/01/18 12:29:25;;;;;;;26.97;8.87;;;8.10;99.90;;;;;;5092083;28;20309;-74
2022/01/18 12:34:38;;;;;;;20.07;7.70;;;8.20;99.90;;;;;;5086989;28;20206;-73
2022/01/18 12:37:41;;;;;;;24.90;8.67;;;8.20;99.90;;;;;;5092422;28;20255;-74
2022/01/18 12:40:21;;;;;;;23.53;7.63;;;8.20;99.90;;;;;;5091179;28;20211;-74
2022/01/18 12:45:49;;;;;;;20.07;7.47;;;8.20;99.90;;;;;;5090924;28;20330;-74
2022/01/18 12:48:16;;;;;;;21.30;8.00;;;8.30;99.90;;;;;;5092019;28;20214;-74
2022/01/18 12:50:45;;;;;;;19.80;7.03;;;8.30;99.90;;;;;;5092004;28;20205;-74
2022/01/18 12:53:14;;;;;;;28.03;7.33;;;8.20;99.90;;;;;;5092088;28;20182;-74
2022/01/18 12:55:45;;;;;;;18.27;6.97;;;8.20;99.90;;;;;;5092199;28;20205;-74
2022/01/18 12:58:15;;;;;;;22.07;6.90;;;8.30;99.90;;;;;;5092395;28;20209;-74
2022/01/18 13:00:45;;;;;;;22.03;7.37;;;8.30;99.90;;;;;;5090460;28;20205;-74
2022/01/18 13:03:18;;;;;;;18.63;6.77;;;8.40;99.90;;;;;;5086138;28;20213;-74
2022/01/18 13:05:46;;;;;;;18.53;6.17;;;8.30;99.90;;;;;;5091959;28;20213;-74
2022/01/18 13:08:15;;;;;;;18.87;6.13;;;8.20;99.90;;;;;;5092239;28;20572;-74
2022/01/18 13:10:46;;;;;;;18.50;6.80;;;8.30;99.90;;;;;;5092034;28;20202;-73
2022/01/18 13:13:15;;;;;;;20.27;6.00;;;8.20;99.90;;;;;;5091669;28;20201;-74
2022/01/18 13:24:39;;;;;;;18.83;6.70;;;8.30;99.90;;;;;;5095498;28;20265;-74
2022/01/18 13:27:12;;;;;;;21.30;6.00;;;8.30;99.90;;;;;;5095986;28;20206;-74
2022/01/18 13:29:40;;;;;;;22.00;7.20;;;8.30;99.90;;;;;;5093869;28;20229;-73
2022/01/18 13:32:12;;;;;;;22.60;6.20;;;8.30;99.90;;;;;;5095437;28;20201;-73
2022/01/18 13:34:40;;;;;;;18.83;6.90;;;8.20;99.90;;;;;;5095386;28;20610;-74
2022/01/18 13:37:11;;;;;;;22.87;6.50;;;8.20;99.90;;;;;;5094351;28;20197;-74
2022/01/18 13:39:44;;;;;;;14.07;5.73;;;8.30;99.90;;;;;;5094708;28;20210;-74
2022/01/18 13:42:14;;;;;;;15.93;5.93;;;8.20;99.90;;;;;;5095280;28;20701;-74
2022/01/18 13:45:01;;;;;;;18.33;5.43;;;8.30;99.90;;;;;;5095225;28;20650;-74
2022/01/18 13:47:28;;;;;;;22.50;7.13;;;8.30;99.90;;;;;;5095363;28;20288;-74
2022/01/18 13:49:55;;;;;;;19.60;7.10;;;8.40;99.90;;;;;;5094516;28;20217;-74
2022/01/18 13:52:30;;;;;;;19.37;6.10;;;8.30;99.90;;;;;;5095603;28;20735;-72
2022/01/18 13:54:57;;;;;;;19.40;5.63;;;8.30;99.90;;;;;;5096509;28;20284;-74
2022/01/18 13:57:25;;;;;;;15.90;4.80;;;8.30;99.90;;;;;;5106205;28;20207;-73
2022/01/18 13:59:55;;;;;;;16.03;5.30;;;8.40;99.90;;;;;;5094653;28;20194;-74
2022/01/18 14:02:24;;;;;;;13.20;5.40;;;8.30;99.90;;;;;;5101336;28;20201;-74
2022/01/18 14:05:07;;;;;;;12.53;4.00;;;8.30;99.90;;;;;;5101590;28;20201;-74
2022/01/18 14:07:35;;;;;;;15.83;4.17;;;8.30;99.90;;;;;;5105929;28;20202;-73
2022/01/18 14:10:03;;;;;;;10.70;3.47;;;8.20;99.90;;;;;;5097945;28;20225;-73